createdAt,value
2022-09-27T00:02:46.525Z,11.96
2022-09-27T00:05:51.878Z,11.98
2022-09-27T00:08:58.537Z,11.96
2022-09-27T00:12:04.147Z,11.96
2022-09-27T00:15:10.055Z,11.95
2022-09-27T00:18:17.053Z,11.93
2022-09-27T00:21:25.110Z,11.91
2022-09-27T00:24:30.363Z,11.90
2022-09-27T00:27:36.108Z,11.90
2022-09-27T00:30:41.787Z,11.89
2022-09-27T00:33:48.052Z,11.86
2022-09-27T00:36:53.543Z,11.84
2022-09-27T00:39:59.611Z,11.85
2022-09-27T00:43:05.296Z,11.87
2022-09-27T00:46:10.838Z,11.87
2022-09-27T00:49:16.660Z,11.84
2022-09-27T00:52:22.292Z,11.77
2022-09-27T00:55:34.491Z,11.72
2022-09-27T00:58:40.006Z,11.68
2022-09-27T01:01:45.350Z,11.62
2022-09-27T01:04:51.893Z,11.55
2022-09-27T01:08:00.783Z,11.51
2022-09-27T01:11:06.723Z,11.49
2022-09-27T01:14:11.922Z,11.48
2022-09-27T01:17:17.205Z,11.47
2022-09-27T01:20:22.659Z,11.49
2022-09-27T01:23:27.906Z,11.51
2022-09-27T01:26:33.470Z,11.53
2022-09-27T01:29:39.236Z,11.54
2022-09-27T01:32:44.729Z,11.52
2022-09-27T01:35:50.199Z,11.51
2022-09-27T01:38:56.409Z,11.48
2022-09-27T01:42:02.188Z,11.46
2022-09-27T01:45:07.922Z,11.44
2022-09-27T01:48:13.500Z,11.44
2022-09-27T01:51:18.822Z,11.45
2022-09-27T01:54:24.448Z,11.46
2022-09-27T01:57:31.168Z,11.45
2022-09-27T02:00:37.115Z,11.44
2022-09-27T02:03:42.713Z,11.46
2022-09-27T02:06:48.434Z,11.47
2022-09-27T02:09:55.857Z,11.49
2022-09-27T02:13:01.589Z,11.52
2022-09-27T02:16:07.032Z,11.55
2022-09-27T02:19:12.973Z,11.56
2022-09-27T02:22:18.215Z,11.59
2022-09-27T02:25:23.724Z,11.64
2022-09-27T02:28:35.145Z,11.64
2022-09-27T02:31:40.597Z,11.67
2022-09-27T02:34:46.222Z,11.70
2022-09-27T02:37:54.098Z,11.75
2022-09-27T02:40:59.900Z,11.78
2022-09-27T02:44:06.045Z,11.82
2022-09-27T02:47:12.739Z,11.82
2022-09-27T02:50:18.549Z,11.83
2022-09-27T02:53:23.908Z,11.86
2022-09-27T02:56:29.364Z,11.87
2022-09-27T02:59:34.897Z,11.87
2022-09-27T03:02:40.537Z,11.90
2022-09-27T03:05:46.989Z,11.93
2022-09-27T03:08:52.910Z,11.95
2022-09-27T03:11:58.593Z,11.97
2022-09-27T03:15:04.156Z,11.95
2022-09-27T03:18:09.910Z,11.91
2022-09-27T03:21:15.625Z,11.87
2022-09-27T03:24:21.288Z,11.78
2022-09-27T03:27:28.157Z,11.71
2022-09-27T03:30:33.696Z,11.62
2022-09-27T03:33:39.666Z,11.50
2022-09-27T03:36:45.439Z,11.42
2022-09-27T03:39:52.117Z,11.34
2022-09-27T03:42:57.564Z,11.24
2022-09-27T03:46:03.431Z,11.17
2022-09-27T03:49:09.105Z,11.11
2022-09-27T03:52:15.583Z,11.05
2022-09-27T03:55:20.945Z,11.02
2022-09-27T03:58:26.287Z,11.00
2022-09-27T04:01:31.908Z,10.97
2022-09-27T04:04:37.308Z,10.99
2022-09-27T04:08:09.460Z,10.97
2022-09-27T04:11:15.455Z,10.95
2022-09-27T04:14:20.986Z,10.95
2022-09-27T04:17:27.622Z,10.95
2022-09-27T04:20:32.953Z,10.95
2022-09-27T04:23:38.593Z,10.95
2022-09-27T04:26:44.344Z,10.95
2022-09-27T04:29:50.219Z,10.94
2022-09-27T04:32:56.457Z,10.92
2022-09-27T04:36:20.167Z,10.91
2022-09-27T04:39:25.720Z,10.91
2022-09-27T04:42:31.729Z,10.91
2022-09-27T04:45:49.272Z,10.88
2022-09-27T04:48:57.109Z,10.86
2022-09-27T04:52:02.651Z,10.84
2022-09-27T04:55:11.333Z,10.83
2022-09-27T04:58:17.847Z,10.82
2022-09-27T05:01:29.754Z,10.80
2022-09-27T05:04:36.145Z,10.81
2022-09-27T05:07:41.818Z,10.80
2022-09-27T05:10:47.492Z,10.81
2022-09-27T05:13:53.091Z,10.85
2022-09-27T05:16:58.505Z,10.88
2022-09-27T05:20:04.267Z,10.91
2022-09-27T05:23:09.688Z,10.95
2022-09-27T05:26:16.112Z,11.01
2022-09-27T05:29:21.882Z,11.07
2022-09-27T05:32:27.214Z,11.14
2022-09-27T05:35:34.150Z,11.23
2022-09-27T05:38:40.029Z,11.33
2022-09-27T05:41:45.763Z,11.45
2022-09-27T05:44:51.468Z,11.56
2022-09-27T05:47:57.152Z,11.67
2022-09-27T05:51:02.986Z,11.77
2022-09-27T05:54:08.470Z,11.85
2022-09-27T05:57:14.708Z,11.95
2022-09-27T06:00:20.848Z,12.04
2022-09-27T06:03:32.761Z,12.11
2022-09-27T06:06:40.756Z,12.19
2022-09-27T06:09:46.446Z,12.24
2022-09-27T06:12:52.851Z,12.27
2022-09-27T06:15:58.681Z,12.30
2022-09-27T06:19:05.411Z,12.33
2022-09-27T06:22:11.181Z,12.38
2022-09-27T06:25:16.726Z,12.43
2022-09-27T06:28:26.475Z,12.48
2022-09-27T06:31:32.358Z,12.54
2022-09-27T06:34:37.823Z,12.62
2022-09-27T06:37:43.163Z,12.65
2022-09-27T06:40:48.789Z,12.69
2022-09-27T06:43:54.518Z,12.77
2022-09-27T06:47:00.426Z,12.83
2022-09-27T06:50:06.698Z,12.92
2022-09-27T06:53:12.075Z,13.00
2022-09-27T06:56:17.357Z,13.08
2022-09-27T06:59:41.617Z,13.15
2022-09-27T07:02:47.789Z,13.26
2022-09-27T07:05:53.461Z,13.36
2022-09-27T07:08:59.126Z,13.47
2022-09-27T07:12:05.650Z,13.58
2022-09-27T07:15:11.387Z,13.69
2022-09-27T07:18:17.577Z,13.82
2022-09-27T07:21:42.205Z,13.96
2022-09-27T07:24:50.979Z,14.16
2022-09-27T07:27:56.375Z,14.35
2022-09-27T07:31:02.544Z,14.57
2022-09-27T07:34:09.133Z,14.74
2022-09-27T07:37:21.174Z,14.89
2022-09-27T07:40:27.000Z,15.02
2022-09-27T07:43:33.204Z,15.11
2022-09-27T07:46:38.856Z,15.16
2022-09-27T07:49:44.186Z,15.21
2022-09-27T07:52:51.136Z,15.25
2022-09-27T07:55:57.320Z,15.33
2022-09-27T07:59:02.803Z,15.41
2022-09-27T08:02:08.563Z,15.48
2022-09-27T08:05:14.471Z,15.51
2022-09-27T08:08:26.367Z,15.58
2022-09-27T08:11:31.914Z,15.71
2022-09-27T08:14:42.227Z,15.82
2022-09-27T08:17:49.344Z,15.97
2022-09-27T08:20:55.519Z,16.11
2022-09-27T08:24:04.175Z,16.18
2022-09-27T08:27:11.994Z,16.29
2022-09-27T08:30:17.941Z,16.36
2022-09-27T08:33:29.842Z,16.49
2022-09-27T08:36:37.577Z,16.44
2022-09-27T08:39:47.029Z,16.50
2022-09-27T08:42:53.758Z,16.64
2022-09-27T08:46:00.234Z,16.68
2022-09-27T08:49:06.012Z,16.72
2022-09-27T08:52:11.628Z,16.71
2022-09-27T08:55:20.710Z,16.77
2022-09-27T08:58:26.322Z,16.85
2022-09-27T09:01:31.722Z,16.74
2022-09-27T09:04:37.267Z,16.74
2022-09-27T09:07:42.970Z,16.71
2022-09-27T09:11:06.495Z,16.79
2022-09-27T09:14:15.065Z,16.84
2022-09-27T09:17:21.355Z,16.78
2022-09-27T09:20:26.836Z,16.76
2022-09-27T09:23:32.731Z,16.81
2022-09-27T09:27:08.678Z,16.89
2022-09-27T09:30:07.288Z,17.00
2022-09-27T09:33:15.939Z,17.12
2022-09-27T09:36:22.267Z,17.18
2022-09-27T09:39:27.717Z,17.23
2022-09-27T09:42:36.407Z,17.35
2022-09-27T09:45:42.967Z,17.44
2022-09-27T09:48:49.985Z,17.48
2022-09-27T09:51:56.975Z,17.51
2022-09-27T09:55:02.875Z,17.46
2022-09-27T09:58:14.537Z,17.50
2022-09-27T10:01:24.142Z,17.44
2022-09-27T10:04:32.823Z,17.45
2022-09-27T10:07:38.347Z,17.25
2022-09-27T10:10:44.002Z,17.20
2022-09-27T10:13:55.818Z,17.09
2022-09-27T10:17:01.070Z,17.03
2022-09-27T10:20:11.621Z,16.96
2022-09-27T10:23:19.347Z,16.97
2022-09-27T10:26:25.132Z,17.04
2022-09-27T10:29:34.852Z,17.14
2022-09-27T10:32:42.044Z,17.20
2022-09-27T10:35:49.556Z,17.29
2022-09-27T10:38:55.781Z,17.30
2022-09-27T10:42:01.329Z,17.31
2022-09-27T10:45:06.687Z,17.38
2022-09-27T10:48:11.955Z,17.37
2022-09-27T10:51:18.484Z,17.46
2022-09-27T10:54:28.761Z,17.46
2022-09-27T10:57:34.326Z,17.46
2022-09-27T11:00:39.983Z,17.48
2022-09-27T11:03:45.793Z,17.49
2022-09-27T11:06:51.129Z,17.52
2022-09-27T11:09:59.812Z,17.57
2022-09-27T11:13:05.118Z,17.55
2022-09-27T11:16:14.606Z,17.63
2022-09-27T11:19:21.548Z,17.66
2022-09-27T11:22:28.556Z,17.64
2022-09-27T11:25:34.716Z,17.68
2022-09-27T11:28:40.335Z,17.80
2022-09-27T11:31:50.136Z,17.94
2022-09-27T11:34:55.741Z,18.07
2022-09-27T11:38:02.456Z,18.15
2022-09-27T11:41:08.884Z,18.31
2022-09-27T11:44:14.793Z,18.47
2022-09-27T11:47:20.653Z,18.31
2022-09-27T11:50:26.758Z,18.11
2022-09-27T11:53:33.029Z,18.02
2022-09-27T11:56:38.455Z,17.99
2022-09-27T11:59:44.622Z,17.92
2022-09-27T12:02:50.381Z,17.87
2022-09-27T12:05:58.451Z,17.88
2022-09-27T12:09:05.530Z,17.80
2022-09-27T12:12:10.959Z,17.75
2022-09-27T12:15:16.202Z,17.73
2022-09-27T12:18:21.668Z,17.70
2022-09-27T12:21:27.355Z,17.68
2022-09-27T12:24:33.105Z,17.64
2022-09-27T12:27:38.693Z,17.69
2022-09-27T12:30:44.193Z,17.79
2022-09-27T12:33:51.295Z,17.85
2022-09-27T12:36:56.565Z,17.93
2022-09-27T12:40:01.848Z,17.95
2022-09-27T12:43:07.299Z,18.02
2022-09-27T12:46:13.285Z,18.06
2022-09-27T12:49:18.933Z,18.04
2022-09-27T12:52:25.617Z,18.06
2022-09-27T12:55:31.423Z,17.96
2022-09-27T12:58:40.610Z,17.95
2022-09-27T13:01:47.748Z,17.92
2022-09-27T13:04:53.981Z,17.91
2022-09-27T13:08:00.108Z,17.94
2022-09-27T13:11:05.845Z,17.96
2022-09-27T13:14:11.815Z,17.99
2022-09-27T13:17:17.603Z,17.93
2022-09-27T13:20:23.172Z,17.78
2022-09-27T13:23:29.228Z,17.66
2022-09-27T13:26:34.744Z,17.62
2022-09-27T13:29:42.165Z,17.69
2022-09-27T13:32:48.315Z,17.75
2022-09-27T13:35:53.748Z,17.85
2022-09-27T13:39:01.429Z,17.96
2022-09-27T13:42:07.321Z,18.04
2022-09-27T13:45:13.705Z,18.01
2022-09-27T13:48:19.108Z,17.99
2022-09-27T13:51:24.615Z,18.02
2022-09-27T13:54:29.902Z,18.09
2022-09-27T13:57:35.287Z,18.23
2022-09-27T14:00:45.335Z,18.28
2022-09-27T14:03:50.670Z,18.34
2022-09-27T14:06:57.457Z,18.34
2022-09-27T14:10:02.924Z,18.33
2022-09-27T14:13:08.647Z,18.31
2022-09-27T14:16:13.979Z,18.24
2022-09-27T14:19:19.601Z,18.19
2022-09-27T14:22:25.781Z,18.10
2022-09-27T14:25:31.183Z,18.11
2022-09-27T14:28:37.127Z,18.11
2022-09-27T14:31:48.281Z,18.06
2022-09-27T14:34:53.984Z,17.93
2022-09-27T14:38:02.410Z,17.81
2022-09-27T14:41:15.763Z,17.70
2022-09-27T14:44:25.879Z,17.63
2022-09-27T14:47:33.755Z,17.59
2022-09-27T14:50:39.521Z,17.54
2022-09-27T14:53:45.236Z,17.44
2022-09-27T14:56:53.621Z,17.41
2022-09-27T15:00:01.299Z,17.36
2022-09-27T15:03:09.067Z,17.37
2022-09-27T15:06:14.975Z,17.34
2022-09-27T15:09:20.841Z,17.33
2022-09-27T15:12:26.758Z,17.28
2022-09-27T15:15:32.427Z,17.26
2022-09-27T15:18:37.966Z,17.25
2022-09-27T15:21:43.531Z,17.20
2022-09-27T15:24:49.589Z,17.09
2022-09-27T15:27:55.331Z,17.01
2022-09-27T15:31:02.039Z,16.92
2022-09-27T15:34:07.519Z,16.85
2022-09-27T15:37:13.524Z,16.80
2022-09-27T15:40:19.781Z,16.68
2022-09-27T15:43:29.249Z,16.59
2022-09-27T15:46:35.419Z,16.52
2022-09-27T15:49:48.850Z,16.43
2022-09-27T15:52:56.091Z,16.31
2022-09-27T15:56:02.128Z,16.23
2022-09-27T15:59:07.968Z,16.13
2022-09-27T16:02:13.718Z,16.04
2022-09-27T16:05:19.363Z,15.93
2022-09-27T16:08:24.857Z,15.81
2022-09-27T16:11:30.215Z,15.73
2022-09-27T16:14:35.662Z,15.57
2022-09-27T16:17:42.739Z,15.47
2022-09-27T16:20:48.469Z,15.36
2022-09-27T16:23:53.960Z,15.27
2022-09-27T16:27:00.339Z,15.13
2022-09-27T16:30:06.011Z,15.08
2022-09-27T16:33:11.904Z,14.97
2022-09-27T16:36:20.159Z,14.87
2022-09-27T16:39:26.792Z,14.76
2022-09-27T16:42:34.103Z,14.65
2022-09-27T16:45:40.314Z,14.54
2022-09-27T16:48:45.943Z,14.42
2022-09-27T16:52:00.072Z,14.32
2022-09-27T16:55:06.812Z,14.23
2022-09-27T16:58:12.463Z,14.14
2022-09-27T17:01:19.027Z,14.07
2022-09-27T17:04:24.610Z,13.98
2022-09-27T17:07:30.468Z,13.91
2022-09-27T17:10:38.766Z,13.83
2022-09-27T17:13:45.485Z,13.76
2022-09-27T17:16:51.633Z,13.71
2022-09-27T17:19:56.829Z,13.67
2022-09-27T17:23:03.420Z,13.62
2022-09-27T17:26:08.881Z,13.59
2022-09-27T17:29:14.848Z,13.53
2022-09-27T17:32:24.764Z,13.47
2022-09-27T17:35:31.642Z,13.43
2022-09-27T17:38:37.483Z,13.38
2022-09-27T17:41:44.368Z,13.33
2022-09-27T17:44:49.948Z,13.28
2022-09-27T17:48:13.819Z,13.25
2022-09-27T17:51:19.744Z,13.20
2022-09-27T17:54:28.012Z,13.16
2022-09-27T17:57:33.926Z,13.13
2022-09-27T18:00:39.756Z,13.10
2022-09-27T18:03:53.183Z,13.05
2022-09-27T18:06:59.258Z,13.00
2022-09-27T18:10:06.600Z,12.94
2022-09-27T18:13:12.947Z,12.90
2022-09-27T18:16:18.782Z,12.85
2022-09-27T18:19:24.790Z,12.78
2022-09-27T18:22:31.240Z,12.72
2022-09-27T18:25:40.847Z,12.66
2022-09-27T18:28:46.903Z,12.57
2022-09-27T18:31:52.331Z,12.51
2022-09-27T18:34:58.071Z,12.46
2022-09-27T18:38:03.361Z,12.42
2022-09-27T18:41:14.721Z,12.42
2022-09-27T18:44:21.083Z,12.44
2022-09-27T18:47:26.790Z,12.51
2022-09-27T18:50:32.622Z,12.56
2022-09-27T18:53:40.602Z,12.61
2022-09-27T18:56:46.326Z,12.61
2022-09-27T18:59:52.183Z,12.58
2022-09-27T19:02:58.459Z,12.56
2022-09-27T19:06:07.309Z,12.56
2022-09-27T19:09:13.169Z,12.55
2022-09-27T19:12:21.570Z,12.54
2022-09-27T19:15:30.149Z,12.54
2022-09-27T19:18:38.376Z,12.49
2022-09-27T19:21:44.536Z,12.48
2022-09-27T19:24:49.974Z,12.47
2022-09-27T19:27:55.874Z,12.46
2022-09-27T19:31:02.487Z,12.44
2022-09-27T19:34:07.967Z,12.42
2022-09-27T19:37:14.246Z,12.39
2022-09-27T19:40:19.702Z,12.35
2022-09-27T19:43:25.031Z,12.33
2022-09-27T19:46:30.431Z,12.34
2022-09-27T19:49:36.357Z,12.34
2022-09-27T19:52:43.619Z,12.33
2022-09-27T19:55:49.359Z,12.35
2022-09-27T19:58:55.518Z,12.34
2022-09-27T20:02:01.101Z,12.31
2022-09-27T20:05:07.167Z,12.31
2022-09-27T20:08:14.217Z,12.32
2022-09-27T20:11:19.634Z,12.33
2022-09-27T20:14:28.087Z,12.34
2022-09-27T20:17:33.821Z,12.33
2022-09-27T20:20:39.255Z,12.37
2022-09-27T20:23:44.500Z,12.38
2022-09-27T20:26:50.571Z,12.40
2022-09-27T20:29:57.239Z,12.41
2022-09-27T20:33:22.377Z,12.41
2022-09-27T20:36:28.543Z,12.41
2022-09-27T20:39:34.250Z,12.42
2022-09-27T20:42:40.092Z,12.42
2022-09-27T20:45:45.911Z,12.39
2022-09-27T20:48:53.004Z,12.37
2022-09-27T20:51:58.351Z,12.34
2022-09-27T20:55:05.900Z,12.33
2022-09-27T20:58:10.988Z,12.29
2022-09-27T21:01:16.689Z,12.26
2022-09-27T21:04:26.200Z,12.22
2022-09-27T21:07:32.016Z,12.19
2022-09-27T21:10:37.448Z,12.16
2022-09-27T21:13:42.810Z,12.11
2022-09-27T21:16:48.359Z,12.10
2022-09-27T21:19:56.567Z,12.07
2022-09-27T21:23:02.266Z,12.02
2022-09-27T21:26:08.102Z,11.97
2022-09-27T21:29:13.660Z,11.92
2022-09-27T21:32:21.745Z,11.88
2022-09-27T21:35:27.617Z,11.82
2022-09-27T21:38:33.154Z,11.78
2022-09-27T21:41:39.153Z,11.75
2022-09-27T21:44:45.093Z,11.74
2022-09-27T21:47:53.650Z,11.73
2022-09-27T21:50:59.808Z,11.72
2022-09-27T21:54:05.357Z,11.75
2022-09-27T21:57:11.063Z,11.76
2022-09-27T22:00:16.853Z,11.76
2022-09-27T22:03:22.890Z,11.76
2022-09-27T22:18:40.564Z,11.73
2022-09-27T22:21:46.267Z,11.73
2022-09-27T22:24:18.420Z,11.76
2022-09-27T22:26:49.045Z,11.77
2022-09-27T22:29:17.464Z,11.72
2022-09-27T22:31:45.565Z,11.81
2022-09-27T22:34:18.598Z,11.84
2022-09-27T22:36:47.731Z,11.85
2022-09-27T22:39:17.475Z,11.91
2022-09-27T22:41:49.499Z,11.98
2022-09-27T22:44:18.719Z,12.01
2022-09-27T22:46:47.344Z,12.10
2022-09-27T22:49:15.393Z,12.17
2022-09-27T22:51:43.792Z,12.20
2022-09-27T22:54:11.761Z,12.24
2022-09-27T22:56:41.182Z,12.30
2022-09-27T22:59:09.407Z,12.33
2022-09-27T23:01:37.889Z,12.35
2022-09-27T23:04:06.174Z,12.40
2022-09-27T23:06:37.548Z,12.43
2022-09-27T23:09:06.434Z,12.45
2022-09-27T23:11:34.694Z,12.48
2022-09-27T23:14:05.966Z,12.48
2022-09-27T23:16:35.648Z,12.52
2022-09-27T23:19:04.086Z,12.51
2022-09-27T23:21:32.207Z,12.55
2022-09-27T23:24:02.941Z,12.61
2022-09-27T23:26:31.125Z,12.57
2022-09-27T23:29:00.964Z,12.65
2022-09-27T23:31:32.425Z,12.68
2022-09-27T23:34:04.261Z,12.64
2022-09-27T23:36:32.542Z,12.69
2022-09-27T23:39:01.695Z,12.69
2022-09-27T23:41:29.892Z,12.68
2022-09-27T23:43:58.019Z,12.71
2022-09-27T23:46:26.335Z,12.69
2022-09-27T23:48:58.996Z,12.68
2022-09-27T23:51:27.218Z,12.72
2022-09-27T23:53:57.174Z,12.75
2022-09-27T23:56:25.757Z,12.75
2022-09-27T23:58:53.747Z,12.74
